Time;durP1;ratioP1;P1;durP2;ratioP2;P2;SDS_P1;SDS_P2;PMS_P1;PMS_P2;Temp;Humidity;BMP_temperature;BMP_pressure;BME280_temperature;BME280_humidity;BME280_pressure;Samples;Min_cycle;Max_cycle;Signal;HPM_P1;HPM_P2
2021/06/30 00:02:25;;;;;;;2.70;2.50;;;16.10;99.90;;;;;;5012617;28;20094;-73
2021/06/30 00:04:51;;;;;;;6.57;2.35;;;16.10;99.90;;;;;;5013340;28;20038;-72
2021/06/30 00:07:16;;;;;;;2.03;1.90;;;16.10;99.90;;;;;;5081539;28;20087;-74
2021/06/30 00:09:42;;;;;;;3.42;2.00;;;16.10;99.90;;;;;;5012011;28;20038;-72
2021/06/30 00:12:09;;;;;;;2.97;1.70;;;16.00;99.90;;;;;;5011538;28;20033;-74
2021/06/30 00:14:35;;;;;;;6.95;1.55;;;16.00;99.90;;;;;;5011097;28;20037;-71
2021/06/30 00:17:01;;;;;;;1.58;1.33;;;16.00;99.90;;;;;;5012592;28;20067;-72
2021/06/30 00:19:28;;;;;;;4.45;1.45;;;16.00;99.90;;;;;;5011830;28;20049;-72
2021/06/30 00:21:54;;;;;;;1.77;1.50;;;16.00;99.90;;;;;;5011398;28;20026;-74
2021/06/30 00:24:20;;;;;;;1.83;1.33;;;16.10;99.90;;;;;;5010347;28;20143;-74
2021/06/30 00:26:46;;;;;;;2.80;1.30;;;16.20;99.90;;;;;;5078481;28;20030;-73
2021/06/30 00:29:11;;;;;;;5.80;1.52;;;16.20;99.90;;;;;;5010569;28;20033;-72
2021/06/30 00:31:37;;;;;;;3.30;1.52;;;16.20;99.90;;;;;;5017134;28;20026;-73
2021/06/30 00:34:04;;;;;;;2.58;1.90;;;16.20;99.90;;;;;;5078075;28;20034;-73
2021/06/30 00:36:31;;;;;;;3.30;1.60;;;16.30;99.90;;;;;;5010352;28;20026;-72
2021/06/30 00:38:57;;;;;;;7.47;1.88;;;16.20;99.90;;;;;;5010171;28;20075;-72
2021/06/30 00:41:22;;;;;;;5.80;1.65;;;16.30;99.90;;;;;;5009571;28;20447;-72
2021/06/30 00:43:48;;;;;;;5.88;1.70;;;16.30;99.90;;;;;;5009772;28;20101;-73
2021/06/30 00:46:14;;;;;;;7.75;1.77;;;16.20;99.90;;;;;;5010307;28;20480;-72
2021/06/30 00:48:40;;;;;;;5.55;1.50;;;16.10;99.90;;;;;;5009993;28;20472;-74
2021/06/30 00:51:06;;;;;;;3.85;1.20;;;16.00;99.90;;;;;;5009287;28;20512;-73
2021/06/30 00:53:32;;;;;;;5.18;1.45;;;16.00;99.90;;;;;;5009741;28;20387;-72
2021/06/30 00:55:58;;;;;;;1.75;1.20;;;15.80;99.90;;;;;;5009955;28;20025;-74
2021/06/30 00:58:24;;;;;;;3.58;0.95;;;15.80;99.90;;;;;;5009551;28;20083;-73
2021/06/30 01:00:50;;;;;;;2.28;1.15;;;15.70;99.90;;;;;;5009173;28;20022;-74
2021/06/30 01:03:16;;;;;;;2.88;0.80;;;15.60;99.90;;;;;;5009100;28;20022;-73
2021/06/30 01:05:42;;;;;;;1.88;1.35;;;15.40;99.90;;;;;;5009637;28;20048;-74
2021/06/30 01:08:07;;;;;;;0.73;0.73;;;15.50;99.90;;;;;;5009522;28;20109;-74
2021/06/30 01:10:33;;;;;;;1.20;0.90;;;15.50;99.90;;;;;;5009068;28;20065;-73
2021/06/30 01:12:59;;;;;;;2.15;0.85;;;15.40;99.90;;;;;;5009434;28;20037;-74
2021/06/30 01:15:24;;;;;;;2.67;1.17;;;15.20;99.90;;;;;;5009493;28;20492;-73
2021/06/30 01:17:51;;;;;;;6.05;1.17;;;15.20;99.90;;;;;;5077166;28;20033;-73
2021/06/30 01:20:18;;;;;;;4.97;0.90;;;15.20;99.90;;;;;;5008797;28;20126;-73
2021/06/30 01:23:01;;;;;;;7.03;1.48;;;15.10;99.90;;;;;;5009377;28;20022;-73
2021/06/30 01:25:27;;;;;;;1.30;1.20;;;15.10;99.90;;;;;;5009559;28;20022;-71
2021/06/30 01:27:52;;;;;;;1.13;1.13;;;15.20;99.90;;;;;;5009082;28;20570;-73
2021/06/30 01:30:18;;;;;;;0.90;0.90;;;15.30;99.90;;;;;;5008494;28;20026;-73
2021/06/30 01:32:44;;;;;;;2.17;1.23;;;15.10;99.90;;;;;;5009424;28;20079;-72
2021/06/30 01:35:17;;;;;;;4.57;1.30;;;15.20;99.90;;;;;;5009041;28;20026;-74
2021/06/30 01:37:47;;;;;;;2.30;1.23;;;15.20;99.90;;;;;;5009469;28;20544;-73
2021/06/30 01:40:14;;;;;;;1.45;1.00;;;15.30;99.90;;;;;;5008539;28;20037;-72
2021/06/30 01:42:43;;;;;;;4.75;1.10;;;15.40;99.90;;;;;;5008988;28;20040;-73
2021/06/30 01:45:09;;;;;;;2.80;1.35;;;15.10;99.90;;;;;;5009015;28;20024;-74
2021/06/30 01:47:35;;;;;;;4.30;1.60;;;15.20;99.90;;;;;;5008995;28;20098;-72
2021/06/30 01:50:00;;;;;;;2.47;1.10;;;15.20;99.90;;;;;;5008339;28;20029;-74
2021/06/30 01:52:29;;;;;;;2.85;0.90;;;15.20;99.90;;;;;;5009059;28;20037;-73
2021/06/30 01:54:55;;;;;;;1.55;0.90;;;15.10;99.90;;;;;;5008944;28;20033;-73
2021/06/30 01:57:21;;;;;;;6.72;1.23;;;15.00;99.90;;;;;;5009052;28;20029;-74
2021/06/30 01:59:47;;;;;;;2.90;0.95;;;15.10;99.90;;;;;;5007819;28;20026;-74
2021/06/30 02:02:12;;;;;;;2.35;0.80;;;15.10;99.90;;;;;;5008907;28;20037;-73
2021/06/30 02:04:39;;;;;;;3.05;0.93;;;14.80;99.90;;;;;;5076404;28;20045;-72
2021/06/30 02:07:05;;;;;;;3.53;0.82;;;14.80;99.90;;;;;;5026910;23;20046;-76
2021/06/30 02:09:32;;;;;;;1.77;1.10;;;14.90;99.90;;;;;;5007571;28;20033;-76
2021/06/30 02:11:58;;;;;;;3.15;1.00;;;15.00;99.90;;;;;;5008099;28;20029;-75
2021/06/30 02:14:24;;;;;;;3.38;1.00;;;15.00;99.90;;;;;;4990468;28;20033;-75
2021/06/30 02:16:49;;;;;;;1.10;1.00;;;15.00;99.90;;;;;;5007573;28;20022;-75
2021/06/30 02:19:15;;;;;;;2.33;1.02;;;15.10;99.90;;;;;;4991724;28;20026;-75
2021/06/30 02:21:42;;;;;;;2.45;1.20;;;15.00;99.90;;;;;;4995859;28;20420;-76
2021/06/30 02:24:08;;;;;;;1.95;1.05;;;15.20;99.90;;;;;;5011698;28;20037;-76
2021/06/30 02:26:34;;;;;;;1.45;1.45;;;15.20;99.90;;;;;;4998665;28;20026;-76
2021/06/30 02:29:00;;;;;;;3.33;1.20;;;15.20;99.90;;;;;;5011318;28;20026;-76
2021/06/30 02:31:26;;;;;;;2.60;1.08;;;15.20;99.90;;;;;;4989937;28;20141;-75
2021/06/30 02:33:52;;;;;;;2.05;1.10;;;15.20;99.90;;;;;;5012107;28;20026;-76
2021/06/30 02:36:19;;;;;;;1.48;1.35;;;15.10;99.90;;;;;;4979584;28;20022;-76
2021/06/30 02:38:45;;;;;;;1.40;1.17;;;15.20;99.90;;;;;;4994457;28;20105;-75
2021/06/30 02:41:11;;;;;;;2.17;1.17;;;15.10;99.90;;;;;;4970449;28;20031;-76
2021/06/30 02:43:37;;;;;;;0.80;0.80;;;15.10;99.90;;;;;;4988205;28;20435;-76
2021/06/30 02:46:03;;;;;;;1.50;1.02;;;15.20;99.90;;;;;;4989381;28;20566;-76
2021/06/30 02:48:29;;;;;;;1.00;1.00;;;15.20;99.90;;;;;;4988228;28;20394;-75
2021/06/30 02:50:55;;;;;;;1.27;1.17;;;15.00;99.90;;;;;;4970211;28;20138;-76
2021/06/30 02:53:21;;;;;;;1.30;1.20;;;15.00;99.90;;;;;;4970734;28;20128;-74
2021/06/30 02:55:47;;;;;;;2.08;1.35;;;15.10;99.90;;;;;;4970559;28;20121;-74
2021/06/30 02:58:13;;;;;;;6.07;1.40;;;15.00;99.90;;;;;;4990066;28;20026;-74
2021/06/30 03:00:38;;;;;;;2.88;1.35;;;15.00;99.90;;;;;;4994260;28;20324;-74
2021/06/30 03:03:04;;;;;;;5.07;1.55;;;15.00;99.90;;;;;;4988020;28;20015;-74
2021/06/30 03:05:30;;;;;;;1.60;1.25;;;15.00;99.90;;;;;;4987696;28;20371;-77
2021/06/30 03:07:55;;;;;;;3.85;1.00;;;15.00;99.90;;;;;;4991352;28;20444;-76
2021/06/30 03:10:21;;;;;;;1.00;0.95;;;14.90;99.90;;;;;;4992186;28;20062;-77
2021/06/30 03:12:48;;;;;;;2.70;1.20;;;14.90;99.90;;;;;;4975967;28;20033;-77
2021/06/30 03:15:15;;;;;;;3.17;1.20;;;14.90;99.90;;;;;;4990609;28;20117;-76
2021/06/30 03:17:41;;;;;;;7.40;2.17;;;15.00;99.90;;;;;;4970157;28;20061;-76
2021/06/30 03:20:09;;;;;;;4.90;1.40;;;15.00;99.90;;;;;;4990910;28;20031;-76
2021/06/30 03:22:37;;;;;;;2.25;1.40;;;14.90;99.90;;;;;;4991989;28;20099;-76
2021/06/30 03:25:03;;;;;;;5.15;1.45;;;15.00;99.90;;;;;;4972920;28;20027;-76
2021/06/30 03:27:29;;;;;;;1.73;1.63;;;15.00;99.90;;;;;;4973137;28;20561;-76
2021/06/30 03:29:54;;;;;;;2.72;1.27;;;15.10;99.90;;;;;;4989763;28;20125;-76
2021/06/30 03:32:20;;;;;;;2.35;1.30;;;15.00;99.90;;;;;;4990471;28;20018;-76
2021/06/30 03:34:46;;;;;;;1.20;1.08;;;14.90;99.90;;;;;;4973214;28;20030;-76
2021/06/30 03:37:11;;;;;;;6.53;0.90;;;14.80;99.90;;;;;;4973432;28;20389;-76
2021/06/30 03:39:38;;;;;;;2.63;1.50;;;14.70;99.90;;;;;;4972717;28;20022;-76
2021/06/30 03:42:04;;;;;;;1.73;1.05;;;14.80;99.90;;;;;;4995455;28;20015;-75
2021/06/30 03:44:30;;;;;;;1.50;1.15;;;14.70;99.90;;;;;;4996163;28;20389;-77
2021/06/30 03:46:56;;;;;;;7.97;1.20;;;14.60;99.90;;;;;;4979505;28;20118;-76
2021/06/30 03:49:21;;;;;;;5.88;1.48;;;14.60;99.90;;;;;;4977210;28;20034;-76
2021/06/30 03:51:48;;;;;;;3.90;1.20;;;14.60;99.90;;;;;;4990526;28;20034;-76
2021/06/30 03:54:14;;;;;;;5.13;0.98;;;14.70;99.90;;;;;;4973382;28;20486;-76
2021/06/30 03:56:39;;;;;;;2.00;0.60;;;14.70;99.90;;;;;;4991195;28;20410;-76
2021/06/30 03:59:05;;;;;;;0.93;0.43;;;14.70;99.90;;;;;;4990986;28;20019;-76
2021/06/30 04:01:31;;;;;;;1.88;0.80;;;14.50;99.90;;;;;;4990057;28;20030;-75
2021/06/30 04:04:00;;;;;;;5.88;0.70;;;14.50;99.90;;;;;;4990486;28;20038;-76
2021/06/30 04:06:26;;;;;;;1.48;0.70;;;14.50;99.90;;;;;;4972894;28;20488;-75
2021/06/30 04:08:52;;;;;;;0.50;0.50;;;14.50;99.90;;;;;;4973019;28;20059;-75
2021/06/30 04:11:17;;;;;;;1.58;0.70;;;14.50;99.90;;;;;;4989650;28;20018;-76
2021/06/30 04:13:44;;;;;;;0.75;0.75;;;14.60;99.90;;;;;;4989997;28;20033;-75
2021/06/30 04:16:10;;;;;;;0.60;0.60;;;14.60;99.90;;;;;;4990384;28;20130;-77
2021/06/30 04:18:36;;;;;;;0.80;0.40;;;14.50;99.90;;;;;;4980391;28;20018;-78
2021/06/30 04:21:02;;;;;;;1.48;0.55;;;14.80;99.90;;;;;;4958955;28;20027;-78
2021/06/30 04:23:28;;;;;;;0.93;0.50;;;14.80;99.90;;;;;;4956699;28;20022;-80
2021/06/30 04:25:54;;;;;;;0.57;0.50;;;14.80;99.90;;;;;;4990283;28;20103;-77
2021/06/30 04:28:19;;;;;;;1.60;0.57;;;14.70;99.90;;;;;;4991653;28;20101;-80
2021/06/30 04:30:45;;;;;;;0.30;0.30;;;14.80;99.90;;;;;;4991579;28;20113;-78
2021/06/30 04:33:11;;;;;;;2.25;0.50;;;14.80;99.90;;;;;;4977910;28;20058;-78
2021/06/30 04:35:37;;;;;;;5.47;0.50;;;14.80;99.90;;;;;;4969219;28;20382;-78
2021/06/30 04:38:06;;;;;;;1.45;0.68;;;14.90;99.90;;;;;;4999412;28;20097;-79
2021/06/30 04:40:31;;;;;;;3.70;0.52;;;15.00;99.90;;;;;;5001683;28;20097;-80
2021/06/30 04:42:57;;;;;;;1.50;0.50;;;14.90;99.90;;;;;;4982279;28;20470;-81
2021/06/30 04:45:24;;;;;;;2.40;0.55;;;14.80;99.90;;;;;;4998055;28;20046;-81
2021/06/30 04:47:50;;;;;;;0.25;0.20;;;14.80;99.90;;;;;;4994644;28;20028;-80
2021/06/30 04:50:16;;;;;;;0.50;0.47;;;14.60;99.90;;;;;;4955124;28;20050;-81
2021/06/30 04:52:41;;;;;;;1.95;0.45;;;14.90;99.90;;;;;;4974304;28;20075;-82
2021/06/30 04:55:08;;;;;;;0.73;0.40;;;15.20;99.90;;;;;;4968408;28;20411;-80
2021/06/30 04:57:36;;;;;;;1.23;0.28;;;15.30;99.90;;;;;;4964069;28;20027;-80
2021/06/30 05:00:06;;;;;;;0.82;0.38;;;15.30;99.90;;;;;;4956535;28;20031;-80
2021/06/30 05:02:32;;;;;;;0.32;0.30;;;15.30;99.90;;;;;;4972821;28;20542;-81
2021/06/30 05:04:57;;;;;;;4.90;0.50;;;15.40;99.90;;;;;;4966184;28;20115;-81
2021/06/30 05:07:23;;;;;;;1.85;0.43;;;15.50;99.90;;;;;;4990037;28;20095;-79
2021/06/30 05:09:49;;;;;;;0.65;0.32;;;15.80;99.90;;;;;;4974965;28;20053;-80
2021/06/30 05:12:14;;;;;;;1.83;0.40;;;15.70;99.90;;;;;;4990820;28;20032;-80
2021/06/30 05:14:40;;;;;;;0.50;0.40;;;15.50;99.90;;;;;;4990129;28;20394;-80
2021/06/30 05:17:06;;;;;;;1.00;0.40;;;15.30;99.90;;;;;;4973570;28;20482;-80
2021/06/30 05:19:31;;;;;;;1.55;0.50;;;15.00;99.90;;;;;;4973472;28;20044;-80
2021/06/30 05:21:57;;;;;;;1.33;0.35;;;15.00;99.90;;;;;;4990489;28;20029;-79
2021/06/30 05:24:23;;;;;;;0.30;0.30;;;14.90;99.90;;;;;;5050961;28;20142;-78
2021/06/30 05:26:50;;;;;;;0.60;0.57;;;14.70;99.90;;;;;;5074511;28;20020;-78
2021/06/30 05:29:16;;;;;;;1.95;0.73;;;14.70;99.90;;;;;;5074248;28;20072;-79
2021/06/30 05:31:42;;;;;;;2.58;0.55;;;14.70;99.90;;;;;;5078878;28;20484;-82
2021/06/30 05:34:08;;;;;;;2.22;0.30;;;14.70;99.90;;;;;;5079672;28;20041;-84
2021/06/30 05:36:34;;;;;;;0.30;0.30;;;14.70;99.90;;;;;;4983068;28;20061;-81
2021/06/30 05:39:00;;;;;;;3.60;0.30;;;14.60;99.90;;;;;;4975588;28;20018;-83
2021/06/30 05:41:26;;;;;;;4.28;0.50;;;14.60;99.90;;;;;;4994363;28;20029;-80
2021/06/30 05:43:51;;;;;;;2.15;0.50;;;14.70;99.90;;;;;;4975887;28;20083;-79
2021/06/30 05:46:18;;;;;;;0.77;0.30;;;14.80;99.90;;;;;;4975246;28;20217;-80
2021/06/30 05:48:45;;;;;;;1.15;0.38;;;14.90;99.90;;;;;;4973890;28;20030;-86
2021/06/30 05:51:12;;;;;;;4.28;0.30;;;14.70;99.90;;;;;;4992808;28;20018;-82
2021/06/30 05:53:38;;;;;;;0.88;0.55;;;14.80;99.90;;;;;;4993421;28;20097;-83
2021/06/30 05:56:05;;;;;;;0.43;0.43;;;14.90;99.90;;;;;;4975921;28;20288;-80
2021/06/30 05:58:31;;;;;;;0.38;0.38;;;14.90;99.90;;;;;;4975066;28;20160;-80
2021/06/30 06:00:56;;;;;;;0.30;0.30;;;14.90;99.90;;;;;;4974751;28;20447;-86
2021/06/30 06:03:22;;;;;;;0.80;0.30;;;14.90;99.90;;;;;;4973903;28;20029;-80
2021/06/30 06:05:48;;;;;;;2.40;0.38;;;14.90;99.90;;;;;;4974109;28;20061;-81
2021/06/30 06:08:13;;;;;;;0.43;0.43;;;14.90;99.90;;;;;;4991692;28;20066;-82
2021/06/30 06:10:39;;;;;;;0.30;0.30;;;14.90;99.90;;;;;;4986992;28;20026;-80
2021/06/30 06:13:05;;;;;;;2.75;0.40;;;14.90;99.90;;;;;;4975142;28;20030;-82
2021/06/30 06:15:30;;;;;;;0.60;0.30;;;14.80;99.90;;;;;;5020207;28;20428;-81
2021/06/30 06:17:57;;;;;;;1.98;0.52;;;14.80;99.90;;;;;;5079059;28;20157;-82
2021/06/30 06:20:23;;;;;;;1.08;0.30;;;15.00;99.90;;;;;;5102893;28;20101;-79
2021/06/30 06:22:49;;;;;;;0.57;0.47;;;14.90;99.90;;;;;;5081902;28;20698;-81
2021/06/30 06:25:15;;;;;;;5.18;0.50;;;15.10;99.90;;;;;;5080815;28;20020;-83
2021/06/30 06:27:41;;;;;;;2.72;0.57;;;15.50;99.90;;;;;;5079300;28;20039;-84
2021/06/30 06:30:09;;;;;;;0.50;0.50;;;15.90;99.90;;;;;;5087863;28;20050;-83
2021/06/30 06:32:35;;;;;;;0.20;0.20;;;16.00;99.90;;;;;;5110957;28;20021;-81
2021/06/30 06:35:03;;;;;;;0.35;0.35;;;16.00;99.90;;;;;;5052965;28;20034;-82
2021/06/30 06:37:29;;;;;;;0.73;0.30;;;16.20;99.90;;;;;;4994697;28;20015;-82
2021/06/30 06:39:55;;;;;;;0.52;0.30;;;16.00;99.90;;;;;;4979602;28;20033;-82
2021/06/30 06:42:21;;;;;;;0.45;0.40;;;16.10;99.90;;;;;;4976980;28;20018;-83
2021/06/30 06:44:46;;;;;;;1.75;0.30;;;16.50;99.90;;;;;;4974753;28;20175;-83
2021/06/30 06:47:12;;;;;;;1.50;0.47;;;16.40;99.90;;;;;;4992802;28;20041;-82
2021/06/30 06:49:38;;;;;;;1.85;0.30;;;16.50;99.90;;;;;;4993665;28;20064;-81
2021/06/30 06:52:04;;;;;;;1.55;0.20;;;16.80;99.90;;;;;;4976889;28;20026;-83
2021/06/30 06:54:30;;;;;;;1.95;0.30;;;16.80;99.90;;;;;;4979294;28;20046;-81
2021/06/30 06:56:56;;;;;;;0.90;0.30;;;16.80;99.90;;;;;;4983951;28;20030;-82
2021/06/30 06:59:22;;;;;;;1.50;0.40;;;17.20;99.90;;;;;;4974870;28;20313;-85
2021/06/30 07:01:47;;;;;;;0.38;0.20;;;17.40;99.90;;;;;;4998123;28;20444;-81
2021/06/30 07:04:13;;;;;;;0.65;0.28;;;17.70;99.90;;;;;;5024905;28;20031;-81
2021/06/30 07:06:39;;;;;;;0.40;0.30;;;17.90;99.90;;;;;;5101704;28;20498;-83
2021/06/30 07:09:06;;;;;;;0.10;0.10;;;17.80;99.90;;;;;;5105293;28;20356;-84
2021/06/30 07:11:32;;;;;;;2.45;0.45;;;18.00;99.90;;;;;;5103680;28;20028;-82
2021/06/30 07:14:00;;;;;;;5.32;0.40;;;18.00;99.90;;;;;;5071211;28;20165;-82
2021/06/30 07:16:26;;;;;;;1.23;0.40;;;17.50;99.90;;;;;;4990124;28;20043;-82
2021/06/30 07:18:51;;;;;;;0.60;0.38;;;17.60;99.90;;;;;;4988723;28;20075;-81
2021/06/30 07:21:17;;;;;;;0.57;0.38;;;17.60;99.90;;;;;;4996607;28;20022;-82
2021/06/30 07:23:43;;;;;;;1.85;0.38;;;17.60;99.90;;;;;;4996977;28;20151;-81
2021/06/30 07:26:12;;;;;;;1.10;0.38;;;17.70;99.90;;;;;;4979823;28;20030;-82
2021/06/30 07:28:39;;;;;;;0.43;0.10;;;18.10;99.90;;;;;;4996401;28;20091;-81
2021/06/30 07:31:06;;;;;;;0.20;0.20;;;17.40;99.90;;;;;;4988820;28;20037;-79
2021/06/30 07:33:33;;;;;;;2.55;0.20;;;17.60;99.90;;;;;;4986847;28;20101;-79
2021/06/30 07:35:59;;;;;;;0.38;0.17;;;18.10;99.90;;;;;;4992215;28;20026;-81
2021/06/30 07:38:26;;;;;;;0.47;0.28;;;18.30;99.90;;;;;;4992895;28;20021;-82
2021/06/30 07:40:52;;;;;;;0.20;0.20;;;18.70;99.90;;;;;;5001178;28;20027;-83
2021/06/30 07:43:18;;;;;;;0.45;0.20;;;18.50;99.90;;;;;;4984857;28;20356;-81
2021/06/30 07:45:44;;;;;;;1.52;0.17;;;18.10;99.90;;;;;;4973002;28;20038;-81
2021/06/30 07:48:11;;;;;;;0.30;0.20;;;17.70;99.90;;;;;;4987246;28;20027;-81
2021/06/30 07:50:37;;;;;;;0.22;0.22;;;17.60;99.90;;;;;;4991719;28;20030;-78
2021/06/30 07:53:04;;;;;;;0.60;0.30;;;17.50;99.90;;;;;;4992444;28;20030;-80
2021/06/30 07:55:31;;;;;;;0.10;0.10;;;17.40;99.90;;;;;;4993067;28;20027;-80
2021/06/30 07:57:57;;;;;;;1.25;0.30;;;17.40;99.90;;;;;;4986705;28;20090;-80
2021/06/30 08:00:23;;;;;;;0.28;0.20;;;17.70;99.90;;;;;;4988988;28;20019;-81
2021/06/30 08:02:49;;;;;;;0.38;0.28;;;17.90;99.90;;;;;;4990813;28;20372;-80
2021/06/30 08:05:15;;;;;;;1.90;0.30;;;18.10;99.90;;;;;;4974249;28;20026;-80
2021/06/30 08:07:40;;;;;;;0.63;0.20;;;18.30;99.90;;;;;;4994508;22;20046;-74
2021/06/30 08:10:08;;;;;;;0.38;0.30;;;18.20;99.90;;;;;;4985809;28;20041;-76
2021/06/30 08:12:34;;;;;;;0.75;0.30;;;18.20;99.90;;;;;;5010263;28;20426;-74
2021/06/30 08:15:00;;;;;;;1.17;0.22;;;18.50;99.90;;;;;;5010678;28;20120;-75
2021/06/30 08:17:26;;;;;;;0.30;0.30;;;18.70;99.90;;;;;;4998373;28;20097;-75
2021/06/30 08:19:52;;;;;;;1.83;0.20;;;18.20;99.90;;;;;;4990814;28;20033;-76
2021/06/30 08:22:17;;;;;;;4.32;0.40;;;18.00;99.90;;;;;;4970791;28;20092;-76
2021/06/30 08:24:44;;;;;;;2.50;0.30;;;18.10;99.90;;;;;;4972691;28;20031;-75
2021/06/30 08:27:12;;;;;;;0.45;0.20;;;18.00;99.90;;;;;;4973602;28;20046;-74
2021/06/30 08:29:38;;;;;;;0.43;0.22;;;18.40;99.90;;;;;;4953473;28;20027;-74
2021/06/30 08:32:05;;;;;;;2.67;0.50;;;18.50;99.90;;;;;;4988713;28;20033;-75
2021/06/30 08:34:31;;;;;;;0.30;0.30;;;18.80;99.90;;;;;;4990666;28;20088;-74
2021/06/30 08:37:03;;;;;;;0.95;0.20;;;19.10;99.90;;;;;;4990604;28;20026;-75
2021/06/30 08:39:29;;;;;;;0.10;0.10;;;19.30;99.90;;;;;;4989971;28;20022;-75
2021/06/30 08:41:55;;;;;;;0.38;0.22;;;19.10;99.90;;;;;;4990380;28;20122;-74
2021/06/30 08:44:21;;;;;;;0.10;0.10;;;18.80;99.90;;;;;;4990443;28;20427;-75
2021/06/30 08:46:48;;;;;;;0.35;0.20;;;18.70;99.90;;;;;;4972889;28;20319;-74
2021/06/30 08:49:15;;;;;;;0.45;0.20;;;19.00;99.90;;;;;;4990440;28;20035;-74
2021/06/30 08:51:44;;;;;;;1.60;0.10;;;18.80;99.90;;;;;;4989720;28;20018;-74
2021/06/30 08:54:11;;;;;;;0.32;0.13;;;18.80;99.90;;;;;;4990415;28;20023;-75
2021/06/30 08:56:37;;;;;;;0.20;0.20;;;20.00;99.90;;;;;;4972756;28;20049;-76
2021/06/30 08:59:03;;;;;;;1.55;0.15;;;20.60;99.90;;;;;;4990168;28;20022;-75
2021/06/30 09:01:31;;;;;;;0.22;0.15;;;20.30;99.90;;;;;;4989532;28;20030;-74
2021/06/30 09:03:57;;;;;;;1.27;0.20;;;20.40;99.90;;;;;;4989675;28;20152;-75
2021/06/30 09:06:24;;;;;;;0.10;0.10;;;20.70;99.90;;;;;;4990206;28;20063;-75
2021/06/30 09:08:49;;;;;;;0.30;0.20;;;20.60;99.90;;;;;;4990666;28;20504;-74
2021/06/30 09:11:20;;;;;;;0.10;0.10;;;19.90;99.90;;;;;;4989945;28;20038;-74
2021/06/30 09:13:48;;;;;;;1.75;0.57;;;19.60;99.90;;;;;;4989649;28;20029;-74
2021/06/30 09:16:14;;;;;;;0.20;0.20;;;19.70;99.90;;;;;;4990156;28;20023;-75
2021/06/30 09:18:41;;;;;;;0.10;0.10;;;19.80;99.90;;;;;;4983783;28;20019;-74
2021/06/30 09:21:29;;;;;;;0.10;0.08;;;19.60;99.90;;;;;;4979786;28;20011;-74
2021/06/30 09:24:05;;;;;;;1.17;0.20;;;19.60;99.90;;;;;;4978628;28;20083;-75
2021/06/30 09:26:35;;;;;;;1.27;0.22;;;19.80;99.90;;;;;;4980896;28;20018;-75
2021/06/30 09:29:07;;;;;;;1.13;0.30;;;19.50;99.90;;;;;;4977958;28;20119;-74
2021/06/30 09:31:34;;;;;;;0.13;0.13;;;19.00;99.90;;;;;;4979777;28;20027;-75
2021/06/30 09:34:00;;;;;;;1.00;0.20;;;18.80;99.90;;;;;;4980137;28;20027;-76
2021/06/30 09:36:32;;;;;;;1.58;0.20;;;18.90;99.90;;;;;;4980499;28;20022;-75
2021/06/30 09:39:11;;;;;;;0.20;0.20;;;19.40;99.90;;;;;;4975907;28;20025;-75
2021/06/30 09:41:39;;;;;;;0.77;0.30;;;19.60;99.90;;;;;;4963480;28;20031;-75
2021/06/30 09:44:16;;;;;;;0.20;0.10;;;20.20;99.90;;;;;;4967851;28;20492;-73
2021/06/30 09:46:44;;;;;;;0.30;0.30;;;20.90;99.90;;;;;;4983678;28;20124;-75
2021/06/30 09:49:15;;;;;;;0.10;0.10;;;20.50;99.90;;;;;;4951586;28;20445;-75
2021/06/30 09:51:44;;;;;;;0.50;0.10;;;20.70;99.90;;;;;;4982699;28;20018;-74
2021/06/30 09:54:12;;;;;;;2.45;0.20;;;20.70;99.90;;;;;;4977086;28;20055;-75
2021/06/30 09:56:40;;;;;;;0.20;0.20;;;19.80;99.90;;;;;;4973750;28;20029;-76
2021/06/30 09:59:08;;;;;;;0.10;0.10;;;19.60;99.90;;;;;;4989869;28;20026;-76
2021/06/30 10:01:35;;;;;;;0.20;0.20;;;19.50;99.90;;;;;;4988603;28;20068;-76
2021/06/30 10:04:02;;;;;;;0.43;0.30;;;19.20;99.90;;;;;;4982652;28;20031;-73
2021/06/30 10:06:33;;;;;;;1.65;0.28;;;19.30;99.90;;;;;;4970007;28;20092;-74
2021/06/30 10:09:02;;;;;;;0.28;0.20;;;19.70;99.90;;;;;;4970492;28;20023;-73
2021/06/30 10:11:30;;;;;;;1.25;0.40;;;19.70;99.90;;;;;;4969292;28;20068;-76
2021/06/30 10:13:57;;;;;;;0.17;0.17;;;19.40;99.90;;;;;;4970170;28;20740;-76
2021/06/30 10:16:24;;;;;;;0.82;0.30;;;19.00;99.90;;;;;;4970439;28;20027;-74
2021/06/30 10:18:52;;;;;;;0.10;0.10;;;18.70;99.90;;;;;;4969871;28;20034;-74
2021/06/30 10:21:23;;;;;;;0.20;0.20;;;18.70;99.90;;;;;;4969423;28;20018;-75
2021/06/30 10:23:51;;;;;;;2.85;0.65;;;18.60;99.90;;;;;;4970143;28;20051;-75
2021/06/30 10:26:19;;;;;;;0.17;0.17;;;19.00;99.90;;;;;;4970409;28;20562;-75
2021/06/30 10:28:59;;;;;;;0.40;0.25;;;19.80;99.90;;;;;;4989292;28;20405;-74
2021/06/30 10:31:31;;;;;;;0.30;0.20;;;20.80;99.90;;;;;;4988610;28;20094;-73
2021/06/30 10:33:59;;;;;;;0.80;0.30;;;21.00;99.90;;;;;;4974371;28;20030;-75
2021/06/30 10:36:44;;;;;;;0.47;0.22;;;20.50;99.90;;;;;;4973454;28;20042;-75
2021/06/30 10:39:10;;;;;;;0.40;0.30;;;20.00;99.90;;;;;;4973148;28;20027;-74
2021/06/30 10:41:53;;;;;;;0.70;0.17;;;20.70;99.90;;;;;;4972698;28;20376;-73
2021/06/30 10:44:24;;;;;;;0.63;0.20;;;20.50;99.90;;;;;;4990865;28;20022;-76
2021/06/30 10:46:52;;;;;;;0.20;0.20;;;21.00;99.90;;;;;;4997520;28;20080;-73
2021/06/30 10:49:18;;;;;;;1.27;0.28;;;20.40;99.90;;;;;;4997118;28;20018;-75
2021/06/30 10:51:47;;;;;;;2.03;0.35;;;19.80;99.90;;;;;;4996647;28;20031;-74
2021/06/30 10:54:40;;;;;;;4.70;0.30;;;19.80;99.90;;;;;;4994651;28;20022;-70
2021/06/30 10:57:23;;;;;;;4.65;0.40;;;19.50;99.90;;;;;;4992692;28;20100;-74
2021/06/30 10:59:58;;;;;;;0.68;0.40;;;20.30;99.90;;;;;;4979909;28;20088;-72
2021/06/30 11:02:25;;;;;;;2.40;0.50;;;20.00;99.90;;;;;;4997225;28;20078;-71
2021/06/30 11:04:51;;;;;;;0.70;0.50;;;20.40;99.90;;;;;;4997767;28;20026;-73
2021/06/30 11:07:33;;;;;;;0.65;0.20;;;21.50;99.90;;;;;;5031813;28;20033;-73
2021/06/30 11:10:28;;;;;;;0.45;0.22;;;22.40;99.90;;;;;;5078156;28;20371;-71
2021/06/30 11:12:55;;;;;;;0.90;0.30;;;23.30;99.90;;;;;;5057064;28;20044;-74
2021/06/30 11:15:36;;;;;;;0.80;0.20;;;23.50;99.90;;;;;;5076159;28;20378;-71
2021/06/30 11:18:03;;;;;;;0.35;0.35;;;22.80;99.90;;;;;;5079895;28;20024;-72
2021/06/30 11:20:49;;;;;;;1.73;0.25;;;22.90;99.90;;;;;;5082833;28;20029;-72
2021/06/30 11:23:20;;;;;;;4.60;0.20;;;23.10;99.90;;;;;;5078451;28;20498;-72
2021/06/30 11:25:47;;;;;;;0.30;0.30;;;22.80;99.90;;;;;;5056623;28;20394;-75
2021/06/30 11:28:38;;;;;;;0.75;0.30;;;21.90;99.90;;;;;;5074902;28;20104;-76
2021/06/30 11:31:29;;;;;;;2.60;0.20;;;20.90;99.90;;;;;;5074247;28;20052;-77
2021/06/30 11:34:20;;;;;;;0.20;0.20;;;21.10;99.90;;;;;;5075146;28;20035;-76
2021/06/30 11:36:45;;;;;;;0.80;0.20;;;21.30;99.90;;;;;;5074769;28;20040;-75
2021/06/30 11:39:14;;;;;;;1.33;0.38;;;21.20;99.90;;;;;;5063182;28;20021;-75
2021/06/30 11:41:48;;;;;;;0.88;0.30;;;21.00;99.90;;;;;;5055795;28;20028;-75
2021/06/30 11:44:17;;;;;;;1.20;0.30;;;20.80;99.90;;;;;;5073451;28;20027;-75
2021/06/30 11:46:44;;;;;;;1.00;0.20;;;21.30;99.90;;;;;;5073301;28;20058;-75
2021/06/30 11:49:16;;;;;;;0.20;0.10;;;21.00;99.90;;;;;;5074096;28;20103;-75
2021/06/30 11:51:42;;;;;;;0.30;0.30;;;20.80;99.90;;;;;;5073649;28;20021;-76
2021/06/30 11:54:14;;;;;;;2.13;0.30;;;21.40;99.90;;;;;;5075852;28;20051;-76
2021/06/30 11:56:42;;;;;;;2.65;0.28;;;21.30;99.90;;;;;;5074979;28;20477;-77
2021/06/30 11:59:19;;;;;;;0.40;0.20;;;20.50;99.90;;;;;;5073896;28;20024;-75
2021/06/30 12:01:45;;;;;;;1.00;0.35;;;19.90;99.90;;;;;;5057552;28;20232;-75
2021/06/30 12:04:40;;;;;;;0.30;0.30;;;19.90;99.90;;;;;;5048398;28;20103;-77
2021/06/30 12:07:06;;;;;;;1.00;0.30;;;21.30;99.90;;;;;;5008955;28;20129;-75
2021/06/30 12:09:34;;;;;;;0.68;0.30;;;21.70;99.90;;;;;;4956347;28;20503;-77
2021/06/30 12:12:05;;;;;;;0.20;0.20;;;21.60;99.90;;;;;;4973121;28;20515;-75
2021/06/30 12:14:47;;;;;;;1.83;0.30;;;22.40;99.90;;;;;;4982150;28;20039;-76
2021/06/30 12:17:14;;;;;;;0.80;0.20;;;22.30;99.90;;;;;;4991562;28;20018;-75
2021/06/30 12:19:51;;;;;;;0.52;0.30;;;23.40;99.90;;;;;;4991049;28;20203;-76
2021/06/30 12:22:36;;;;;;;0.47;0.40;;;23.40;99.90;;;;;;4975128;28;20091;-76
2021/06/30 12:25:04;;;;;;;0.55;0.30;;;23.10;99.90;;;;;;4991884;28;20030;-72
2021/06/30 12:27:43;;;;;;;0.30;0.30;;;24.30;99.90;;;;;;4991587;28;20026;-75
2021/06/30 12:30:16;;;;;;;1.20;0.65;;;24.40;99.90;;;;;;4990261;28;20026;-74
2021/06/30 12:32:51;;;;;;;0.85;0.32;;;23.30;99.90;;;;;;4991430;28;20098;-74
2021/06/30 12:35:28;;;;;;;1.45;0.30;;;23.10;99.90;;;;;;4990737;28;20034;-74
2021/06/30 12:38:08;;;;;;;1.65;0.30;;;23.80;99.90;;;;;;4991363;28;20050;-73
2021/06/30 12:40:34;;;;;;;0.85;0.35;;;23.90;99.90;;;;;;4991453;28;20018;-75
2021/06/30 12:43:04;;;;;;;1.17;0.40;;;23.80;99.90;;;;;;4992552;28;20396;-74
2021/06/30 12:45:59;;;;;;;2.28;0.50;;;24.30;99.90;;;;;;5002217;28;20022;-74
2021/06/30 12:48:27;;;;;;;0.10;0.10;;;25.70;99.50;;;;;;4994207;28;20117;-76
2021/06/30 12:50:56;;;;;;;0.20;0.20;;;27.20;96.80;;;;;;4999797;28;20115;-75
2021/06/30 12:53:27;;;;;;;0.38;0.30;;;25.50;96.80;;;;;;4973846;28;20041;-74